Time;durP1;ratioP1;P1;durP2;ratioP2;P2;SDS_P1;SDS_P2;PMS_P1;PMS_P2;Temp;Humidity;BMP_temperature;BMP_pressure;BME280_temperature;BME280_humidity;BME280_pressure;Samples;Min_cycle;Max_cycle;Signal;HPM_P1;HPM_P2
2021/12/18 00:01:35;;;;;;;14.00;9.55;;;;;;;4.04;99.21;102576.59;4902561;29;20100;-89
2021/12/18 00:04:03;;;;;;;15.68;9.82;;;;;;;3.97;98.71;102566.00;4907543;29;20055;-88
2021/12/18 00:06:30;;;;;;;17.35;9.90;;;;;;;3.96;98.91;102569.47;4901776;29;20151;-88
2021/12/18 00:08:58;;;;;;;15.15;9.77;;;;;;;4.06;98.70;102597.59;4904655;29;20060;-88
2021/12/18 00:11:26;;;;;;;14.75;10.27;;;;;;;4.12;98.90;102608.16;4906117;29;20109;-88
2021/12/18 00:13:53;;;;;;;18.67;11.48;;;;;;;3.93;99.00;102585.19;4905030;29;20063;-88
2021/12/18 00:16:21;;;;;;;18.15;10.88;;;;;;;4.11;99.34;102624.75;4902618;29;20087;-88
2021/12/18 00:18:51;;;;;;;17.02;10.57;;;;;;;3.94;99.37;102602.63;4899274;29;20053;-88
2021/12/18 00:21:20;;;;;;;19.58;11.40;;;;;;;3.90;99.66;102604.34;4899391;29;20064;-88
2021/12/18 00:23:48;;;;;;;17.97;11.10;;;;;;;3.79;99.95;102591.06;4909659;29;20052;-88
2021/12/18 00:26:14;;;;;;;18.58;11.20;;;;;;;3.82;100.00;102596.34;4920191;29;20055;-88
2021/12/18 00:28:41;;;;;;;18.00;11.63;;;;;;;3.87;100.00;102596.44;4910320;29;20541;-87
2021/12/18 00:31:08;;;;;;;17.55;10.93;;;;;;;3.96;100.00;102617.53;4901080;29;20136;-88
2021/12/18 00:33:35;;;;;;;17.15;10.73;;;;;;;3.84;100.00;102612.09;4906130;29;20120;-86
2021/12/18 00:36:02;;;;;;;17.55;10.90;;;;;;;3.87;100.00;102626.16;4906618;29;20087;-88
2021/12/18 00:38:30;;;;;;;19.35;11.77;;;;;;;3.82;100.00;102605.97;4902217;29;20044;-89
2021/12/18 00:44:01;;;;;;;15.77;11.13;;;;;;;3.78;100.00;102588.41;4900616;29;20069;-88
2021/12/18 00:46:26;;;;;;;16.85;10.82;;;;;;;3.76;100.00;102605.88;4897587;29;20061;-89
2021/12/18 00:48:53;;;;;;;17.77;11.23;;;;;;;3.73;100.00;102604.09;4900915;29;20056;-88
2021/12/18 00:51:20;;;;;;;17.58;10.90;;;;;;;3.85;100.00;102627.88;4904525;29;20072;-89
2021/12/18 00:53:47;;;;;;;19.30;11.23;;;;;;;3.83;100.00;102639.16;4901075;29;20080;-88
2021/12/18 00:56:14;;;;;;;19.73;11.60;;;;;;;3.68;100.00;102607.47;4895584;29;20052;-89
2021/12/18 00:58:41;;;;;;;17.80;11.10;;;;;;;3.57;100.00;102586.34;4900584;29;20040;-89
2021/12/18 01:01:10;;;;;;;16.85;11.27;;;;;;;3.82;100.00;102630.44;4901364;29;20052;-88
2021/12/18 01:03:41;;;;;;;18.75;11.32;;;;;;;3.80;100.00;102634.75;4898014;29;20064;-88
2021/12/18 01:06:08;;;;;;;19.95;11.73;;;;;;;3.66;100.00;102606.56;4892542;29;20044;-89
2021/12/18 01:08:35;;;;;;;17.23;12.00;;;;;;;3.75;100.00;102623.34;4892268;29;20139;-89
2021/12/18 01:13:37;;;;;;;20.90;11.82;;;;;;;3.59;100.00;102613.47;4878811;29;20053;-88
2021/12/18 01:16:14;;;;;;;20.73;12.30;;;;;;;3.47;100.00;102597.50;4897078;29;20064;-88
2021/12/18 01:24:11;;;;;;;18.08;11.27;;;;;;;3.62;100.00;102626.59;4895826;29;20163;-88
2021/12/18 01:26:38;;;;;;;20.38;12.38;;;;;;;3.56;100.00;102629.13;4895431;29;20118;-89
2021/12/18 01:29:05;;;;;;;21.33;12.30;;;;;;;3.54;100.00;102617.72;4895173;29;20140;-89
2021/12/18 01:31:32;;;;;;;22.35;12.18;;;;;;;3.52;100.00;102608.97;4892671;29;20051;-89
2021/12/18 01:33:59;;;;;;;19.58;11.93;;;;;;;3.70;100.00;102643.34;4901812;29;20057;-89
2021/12/18 01:36:29;;;;;;;20.42;11.55;;;;;;;3.64;100.00;102630.13;4912624;29;20049;-89
2021/12/18 01:38:57;;;;;;;19.08;12.55;;;;;;;3.33;100.00;102578.06;4907509;29;20058;-89
2021/12/18 01:41:23;;;;;;;24.45;12.73;;;;;;;3.65;100.00;102634.50;4905524;29;20052;-88
2021/12/18 01:47:03;;;;;;;19.67;12.65;;;;;;;3.47;100.00;102607.97;4874887;29;20500;-89
2021/12/18 01:52:21;;;;;;;22.77;13.02;;;;;;;3.57;100.00;102633.50;4894124;29;20040;-89
2021/12/18 01:54:47;;;;;;;22.33;12.48;;;;;;;3.61;100.00;102650.16;4891783;29;20049;-89
2021/12/18 01:57:15;;;;;;;20.15;12.40;;;;;;;3.49;100.00;102637.72;4896342;29;20058;-88
2021/12/18 01:59:46;;;;;;;22.52;13.32;;;;;;;3.47;100.00;102639.41;4901537;29;20056;-89
2021/12/18 02:02:14;;;;;;;22.38;13.00;;;;;;;3.52;100.00;102649.13;4900178;29;20582;-88
2021/12/18 02:04:41;;;;;;;22.00;13.70;;;;;;;3.48;100.00;102643.81;4901577;29;20139;-89
2021/12/18 02:07:07;;;;;;;23.83;14.20;;;;;;;3.53;100.00;102629.06;4903020;29;20458;-89
2021/12/18 02:20:57;;;;;;;24.88;14.52;;;;;;;3.82;99.53;102654.00;4904388;29;20083;-88
2021/12/18 02:23:24;;;;;;;26.33;14.50;;;;;;;3.65;99.57;102607.41;4895672;29;20139;-89
2021/12/18 02:25:51;;;;;;;23.65;14.57;;;;;;;3.81;99.60;102633.91;4897220;29;20069;-89
2021/12/18 02:28:25;;;;;;;24.92;14.63;;;;;;;3.74;99.20;102610.22;4898871;29;20057;-89
2021/12/18 02:30:55;;;;;;;26.20;14.55;;;;;;;3.51;99.20;102574.03;4898969;29;20112;-89
2021/12/18 02:33:23;;;;;;;24.10;14.02;;;;;;;3.77;98.89;102629.50;4890169;29;20123;-89
2021/12/18 02:35:53;;;;;;;26.90;15.10;;;;;;;3.77;99.46;102637.34;4893955;29;20057;-89
2021/12/18 02:38:27;;;;;;;29.70;15.38;;;;;;;3.88;98.84;102646.25;4895223;29;20083;-89
2021/12/18 02:43:33;;;;;;;27.30;14.55;;;;;;;3.95;98.25;102638.47;4892948;29;20423;-89
2021/12/18 02:46:06;;;;;;;29.42;15.57;;;;;;;3.88;98.19;102643.66;4893024;29;20062;-89
2021/12/18 02:48:39;;;;;;;25.90;15.18;;;;;;;3.86;98.40;102645.34;4896853;29;20562;-88
2021/12/18 02:51:08;;;;;;;27.27;15.25;;;;;;;3.90;98.88;102648.03;4895870;29;20052;-88
2021/12/18 02:53:37;;;;;;;28.48;15.52;;;;;;;3.91;98.60;102647.19;4893057;29;20044;-89
2021/12/18 02:56:06;;;;;;;28.00;15.68;;;;;;;3.91;98.82;102652.41;4891481;29;20084;-89
2021/12/18 02:58:43;;;;;;;27.02;15.05;;;;;;;3.85;98.84;102635.72;4896317;29;20112;-88
2021/12/18 03:01:13;;;;;;;26.88;14.90;;;;;;;3.85;98.44;102627.88;4896667;29;20051;-89
2021/12/18 03:03:41;;;;;;;28.92;16.13;;;;;;;3.73;98.14;102613.69;4894383;29;20087;-88
2021/12/18 03:06:34;;;;;;;27.63;16.52;;;;;;;3.84;98.33;102630.47;4894421;29;20453;-89
2021/12/18 03:25:55;;;;;;;29.38;15.32;;;;;;;4.01;97.78;102642.09;4882151;29;20077;-88
2021/12/18 03:28:52;;;;;;;30.73;16.42;;;;;;;4.14;97.93;102657.16;4903462;29;20032;-87
2021/12/18 03:31:27;;;;;;;28.90;16.27;;;;;;;4.13;97.75;102652.75;4917793;29;20061;-88
2021/12/18 03:34:07;;;;;;;27.45;15.93;;;;;;;3.83;97.83;102600.75;4906250;29;20083;-88
2021/12/18 03:36:36;;;;;;;27.67;15.35;;;;;;;3.93;97.73;102612.28;4909092;29;20052;-89
2021/12/18 03:39:07;;;;;;;31.38;16.48;;;;;;;4.02;97.45;102615.03;4903700;29;20040;-88
2021/12/18 03:41:47;;;;;;;33.67;16.67;;;;;;;4.18;97.42;102637.13;4904860;29;20120;-88
2021/12/18 03:44:16;;;;;;;33.78;17.35;;;;;;;3.89;98.25;102584.25;4894232;29;20056;-89
2021/12/18 03:46:43;;;;;;;31.23;17.20;;;;;;;3.94;98.15;102593.03;4902764;29;20076;-89
2021/12/18 03:49:12;;;;;;;28.05;15.63;;;;;;;4.33;97.82;102645.19;4901292;29;20123;-88
2021/12/18 03:51:41;;;;;;;28.25;16.63;;;;;;;4.37;97.14;102644.41;4906028;29;20515;-89
2021/12/18 03:54:08;;;;;;;29.25;16.58;;;;;;;4.22;97.70;102612.69;4901625;29;20373;-88
2021/12/18 03:56:38;;;;;;;27.52;16.30;;;;;;;3.97;97.36;102574.75;4920173;29;20059;-89
2021/12/18 03:59:05;;;;;;;31.08;16.75;;;;;;;4.16;97.34;102597.75;4906823;29;20080;-89
2021/12/18 04:01:38;;;;;;;29.08;16.23;;;;;;;4.18;96.48;102595.16;4899424;29;20052;-88
2021/12/18 04:04:05;;;;;;;30.27;17.15;;;;;;;4.31;97.30;102617.19;4899891;29;20461;-88
2021/12/18 04:06:37;;;;;;;27.83;16.25;;;;;;;4.28;96.82;102618.00;4909282;29;20064;-89
2021/12/18 04:09:10;;;;;;;28.98;16.33;;;;;;;4.43;97.22;102638.34;4902763;29;20052;-90
2021/12/18 04:11:43;;;;;;;31.77;17.52;;;;;;;4.18;97.10;102595.16;4901748;29;20080;-89
2021/12/18 04:14:13;;;;;;;28.35;16.23;;;;;;;4.34;96.97;102622.47;4904685;29;20060;-88
2021/12/18 04:16:52;;;;;;;32.42;16.60;;;;;;;4.40;97.07;102633.06;4897702;29;20451;-89
2021/12/18 04:19:19;;;;;;;29.27;16.52;;;;;;;4.19;97.95;102597.81;4900456;29;20143;-88
2021/12/18 04:21:46;;;;;;;32.50;17.05;;;;;;;4.38;97.85;102624.28;4896191;29;20069;-89
2021/12/18 04:24:16;;;;;;;31.67;16.85;;;;;;;4.33;97.83;102604.97;4903700;29;20074;-88
2021/12/18 04:26:51;;;;;;;27.60;16.40;;;;;;;4.57;97.17;102636.78;4899575;29;20053;-88
2021/12/18 04:29:18;;;;;;;28.88;16.55;;;;;;;4.45;96.56;102613.00;4907296;29;20048;-89
2021/12/18 04:31:45;;;;;;;29.40;15.95;;;;;;;4.20;96.23;102568.09;4903628;29;20080;-88
2021/12/18 04:34:15;;;;;;;28.90;16.45;;;;;;;4.54;96.11;102632.41;4906538;29;20053;-89
2021/12/18 04:36:43;;;;;;;27.13;15.95;;;;;;;4.37;95.91;102599.81;4898742;29;20124;-89
2021/12/18 04:39:15;;;;;;;29.23;15.95;;;;;;;4.58;96.52;102649.91;4905117;29;20076;-89
2021/12/18 04:41:50;;;;;;;30.20;17.00;;;;;;;4.45;96.42;102618.25;4904412;29;20053;-89
2021/12/18 04:44:19;;;;;;;31.15;16.77;;;;;;;4.40;96.47;102604.22;4896979;29;20057;-89
2021/12/18 04:46:46;;;;;;;31.85;17.00;;;;;;;4.40;96.63;102614.72;4902753;29;20067;-88
2021/12/18 04:49:13;;;;;;;30.02;16.42;;;;;;;4.29;96.28;102585.69;4908443;29;20483;-89
2021/12/18 04:52:12;;;;;;;29.83;16.88;;;;;;;4.66;96.09;102646.53;4902396;29;20060;-88
2021/12/18 04:54:41;;;;;;;26.45;16.58;;;;;;;4.67;95.67;102643.94;4892180;29;20147;-89
2021/12/18 04:57:08;;;;;;;29.23;16.58;;;;;;;4.68;95.79;102648.31;4902579;29;20068;-89
2021/12/18 04:59:42;;;;;;;25.10;15.23;;;;;;;4.57;95.57;102632.41;4900585;29;20717;-91
2021/12/18 05:02:10;;;;;;;26.58;16.60;;;;;;;4.69;95.40;102643.94;4894995;29;20049;-89
2021/12/18 05:04:37;;;;;;;28.52;16.90;;;;;;;4.69;95.63;102639.59;4905614;29;20057;-90
2021/12/18 05:07:05;;;;;;;25.67;15.23;;;;;;;4.61;95.14;102621.97;4901001;29;20139;-89
2021/12/18 05:09:33;;;;;;;30.67;17.08;;;;;;;4.58;95.08;102613.19;4906734;29;20099;-89
2021/12/18 05:12:00;;;;;;;28.25;16.83;;;;;;;4.61;94.27;102611.47;4904004;29;20068;-89
2021/12/18 05:14:27;;;;;;;28.75;16.67;;;;;;;4.64;94.04;102611.50;4920952;29;20073;-88
2021/12/18 05:16:55;;;;;;;24.10;15.15;;;;;;;4.72;93.69;102628.25;4906045;29;20151;-89
2021/12/18 05:19:24;;;;;;;27.55;15.65;;;;;;;4.59;94.02;102620.19;4911356;29;20488;-89
2021/12/18 05:21:52;;;;;;;28.17;16.70;;;;;;;4.79;94.48;102653.69;4904462;29;20056;-89
2021/12/18 05:24:19;;;;;;;27.55;16.25;;;;;;;4.74;94.06;102637.00;4905415;29;20131;-89
2021/12/18 05:26:46;;;;;;;26.15;16.42;;;;;;;4.79;94.36;102649.31;4916803;29;20036;-89
2021/12/18 05:29:14;;;;;;;24.92;16.23;;;;;;;4.71;94.90;102627.38;4905297;29;20081;-89
2021/12/18 05:31:41;;;;;;;24.83;15.48;;;;;;;4.78;94.86;102633.56;4900822;29;20049;-88
2021/12/18 05:34:07;;;;;;;28.77;16.65;;;;;;;4.84;94.52;102647.66;4899694;29;20053;-89
2021/12/18 05:39:07;;;;;;;25.48;14.88;;;;;;;4.67;94.07;102603.69;4903621;29;20056;-89
2021/12/18 05:41:34;;;;;;;24.88;15.07;;;;;;;4.71;94.26;102602.88;4906088;29;20128;-89
2021/12/18 05:44:02;;;;;;;30.13;15.68;;;;;;;4.92;93.64;102639.84;4903120;29;20552;-89
2021/12/18 05:46:30;;;;;;;23.13;13.93;;;;;;;4.98;93.34;102647.81;4906615;29;20037;-89
2021/12/18 05:48:57;;;;;;;27.10;15.57;;;;;;;4.86;93.30;102614.44;4894978;29;20053;-89
2021/12/18 05:51:24;;;;;;;23.27;12.85;;;;;;;4.87;92.75;102620.56;4895710;29;20048;-89
2021/12/18 05:53:50;;;;;;;24.02;13.77;;;;;;;4.99;92.37;102646.97;4893882;29;20419;-89
2021/12/18 05:56:17;;;;;;;24.02;13.88;;;;;;;4.88;93.13;102631.06;4889028;29;20575;-89
2021/12/18 05:58:44;;;;;;;25.15;14.13;;;;;;;4.96;92.97;102652.16;4899897;29;20048;-89
2021/12/18 06:01:13;;;;;;;21.23;12.55;;;;;;;4.96;92.83;102641.66;4895332;29;20052;-89
2021/12/18 06:03:40;;;;;;;24.40;13.52;;;;;;;4.96;92.85;102643.41;4896108;29;20121;-89
2021/12/18 06:06:07;;;;;;;26.13;14.30;;;;;;;4.90;93.09;102631.06;4887501;29;20056;-89
2021/12/18 06:08:35;;;;;;;25.77;14.65;;;;;;;4.98;92.85;102639.94;4898409;29;20058;-89
2021/12/18 06:11:12;;;;;;;29.08;13.85;;;;;;;4.99;93.30;102646.97;4914565;29;20056;-89
2021/12/18 06:13:40;;;;;;;23.92;14.35;;;;;;;4.94;93.19;102638.13;4897517;29;20071;-89
2021/12/18 06:16:07;;;;;;;24.60;14.00;;;;;;;4.89;93.25;102632.81;4884038;29;20519;-88
2021/12/18 06:18:36;;;;;;;25.45;14.65;;;;;;;4.99;93.57;102651.31;4895972;29;20479;-90
2021/12/18 06:21:03;;;;;;;25.42;15.32;;;;;;;4.89;93.85;102631.94;4895127;29;20067;-89
2021/12/18 06:23:30;;;;;;;26.38;14.63;;;;;;;4.86;93.91;102630.19;4893137;29;20066;-89
2021/12/18 06:25:57;;;;;;;29.80;14.90;;;;;;;4.95;93.68;102647.78;4890178;29;20093;-90
2021/12/18 06:28:24;;;;;;;27.50;15.07;;;;;;;4.88;94.25;102630.16;4895157;29;20143;-89
2021/12/18 06:30:51;;;;;;;26.40;14.23;;;;;;;4.95;93.92;102639.91;4893649;29;20453;-89
2021/12/18 06:33:19;;;;;;;23.73;13.80;;;;;;;4.76;93.84;102611.66;4896276;29;20104;-89
2021/12/18 06:35:47;;;;;;;28.50;14.93;;;;;;;4.57;93.66;102579.06;4892437;29;20119;-89
2021/12/18 06:38:14;;;;;;;27.95;15.57;;;;;;;4.69;94.00;102605.47;4897176;29;20131;-88
2021/12/18 06:40:41;;;;;;;26.73;14.57;;;;;;;4.82;93.59;102630.13;4892437;29;20056;-88
2021/12/18 06:43:08;;;;;;;27.73;14.40;;;;;;;4.87;94.08;102641.56;4892415;29;20097;-88
2021/12/18 06:45:35;;;;;;;24.00;13.57;;;;;;;4.94;93.85;102662.66;4890699;29;20147;-89
2021/12/18 06:48:02;;;;;;;28.10;16.15;;;;;;;4.74;94.35;102623.88;4893892;29;20066;-88
2021/12/18 06:50:29;;;;;;;27.85;15.93;;;;;;;4.81;94.55;102636.22;4894833;29;20091;-89
2021/12/18 06:52:56;;;;;;;31.00;15.98;;;;;;;4.72;94.97;102626.47;4893429;29;20571;-87
2021/12/18 06:55:23;;;;;;;30.52;16.55;;;;;;;4.85;95.18;102644.16;4893589;29;20210;-88
2021/12/18 06:57:50;;;;;;;30.25;16.40;;;;;;;4.87;94.87;102641.56;4895814;29;20099;-89
2021/12/18 07:00:18;;;;;;;29.75;16.33;;;;;;;4.81;95.42;102637.09;4894526;29;20061;-87
2021/12/18 07:02:45;;;;;;;28.10;15.63;;;;;;;4.90;95.48;102660.84;4894103;29;20108;-89
2021/12/18 07:05:13;;;;;;;28.27;16.50;;;;;;;4.79;95.47;102651.97;4895067;29;20089;-89
2021/12/18 07:07:39;;;;;;;29.77;16.23;;;;;;;4.89;95.30;102671.31;4891639;29;20104;-88
2021/12/18 07:10:10;;;;;;;28.67;16.20;;;;;;;4.72;95.74;102636.13;4895662;29;20170;-89
2021/12/18 07:12:37;;;;;;;28.85;16.50;;;;;;;4.85;95.17;102654.66;4894722;29;20052;-88
2021/12/18 07:15:06;;;;;;;28.08;15.52;;;;;;;4.86;95.22;102645.06;4895655;29;20100;-89
2021/12/18 07:17:33;;;;;;;29.10;16.02;;;;;;;4.96;94.87;102670.53;4901821;29;20045;-89
2021/12/18 07:20:00;;;;;;;26.15;15.27;;;;;;;4.85;94.91;102664.28;4903104;29;20139;-89
2021/12/18 07:22:26;;;;;;;28.80;16.27;;;;;;;4.81;95.36;102660.72;4900882;29;20051;-89
2021/12/18 07:24:53;;;;;;;30.20;15.32;;;;;;;4.83;95.52;102669.50;4898588;29;20124;-88
2021/12/18 07:27:20;;;;;;;27.52;15.20;;;;;;;4.92;94.49;102672.25;4900344;29;20143;-89
2021/12/18 07:29:47;;;;;;;22.63;14.48;;;;;;;4.96;93.79;102674.91;4907609;29;20076;-87
2021/12/18 07:32:13;;;;;;;24.85;15.48;;;;;;;4.87;93.47;102666.06;4913508;29;20060;-89
2021/12/18 07:34:51;;;;;;;26.85;14.85;;;;;;;4.87;94.21;102665.19;4913936;29;20080;-89
2021/12/18 07:37:18;;;;;;;26.63;15.13;;;;;;;4.69;94.28;102641.31;4905369;29;20058;-89
2021/12/18 07:39:45;;;;;;;25.48;14.80;;;;;;;4.86;94.18;102663.44;4916225;29;20096;-88
2021/12/18 07:42:13;;;;;;;25.58;14.57;;;;;;;4.98;93.47;102681.94;4917992;29;20072;-85
2021/12/18 07:44:40;;;;;;;25.50;15.02;;;;;;;4.83;93.10;102655.50;4917198;29;20067;-87
2021/12/18 07:47:07;;;;;;;26.90;14.63;;;;;;;4.72;93.74;102654.50;4920770;29;20100;-89
2021/12/18 07:49:37;;;;;;;25.38;14.93;;;;;;;4.81;94.65;102670.34;4922015;29;20040;-88
2021/12/18 07:52:04;;;;;;;27.40;14.90;;;;;;;4.83;94.50;102672.13;4923622;29;20024;-88
2021/12/18 07:54:31;;;;;;;25.88;14.75;;;;;;;4.83;94.52;102669.50;4921045;29;20032;-89
2021/12/18 07:56:58;;;;;;;26.45;14.60;;;;;;;4.82;94.59;102672.13;4917916;29;20051;-88
2021/12/18 07:59:25;;;;;;;24.27;14.50;;;;;;;4.81;94.57;102665.97;4917645;29;20033;-87
2021/12/18 08:01:52;;;;;;;22.67;13.82;;;;;;;4.86;94.17;102672.19;4921913;29;20052;-87
2021/12/18 08:04:19;;;;;;;28.27;14.73;;;;;;;4.87;94.24;102670.44;4915184;29;20079;-87
2021/12/18 08:06:46;;;;;;;20.88;12.85;;;;;;;4.83;93.69;102638.00;4905630;29;20060;-88
2021/12/18 08:09:12;;;;;;;20.58;12.70;;;;;;;5.06;92.92;102685.53;4911925;29;20074;-88
2021/12/18 08:11:39;;;;;;;19.67;12.57;;;;;;;4.99;92.65;102686.34;4902568;29;20052;-87
2021/12/18 08:14:06;;;;;;;21.83;13.05;;;;;;;4.84;93.53;102655.53;4901022;29;20060;-87
2021/12/18 08:16:33;;;;;;;22.80;13.30;;;;;;;4.77;93.36;102648.44;4899958;29;20465;-87
2021/12/18 08:19:00;;;;;;;23.17;13.82;;;;;;;5.04;92.90;102684.63;4914635;29;20040;-88
2021/12/18 08:21:27;;;;;;;19.13;12.32;;;;;;;5.03;91.87;102675.03;4920221;29;20048;-87
2021/12/18 08:23:53;;;;;;;22.05;13.45;;;;;;;4.71;92.03;102635.25;4907980;29;20555;-87
2021/12/18 08:26:21;;;;;;;19.23;12.48;;;;;;;4.98;91.84;102670.56;4896587;29;20159;-87
2021/12/18 08:28:47;;;;;;;21.95;12.60;;;;;;;4.63;91.80;102609.75;4904788;29;20057;-88
2021/12/18 08:31:15;;;;;;;19.67;12.20;;;;;;;4.92;91.94;102661.75;4913926;29;20064;-89
2021/12/18 08:33:41;;;;;;;22.17;13.20;;;;;;;5.05;91.58;102686.41;4910864;29;20075;-88
2021/12/18 08:36:08;;;;;;;22.10;13.20;;;;;;;4.98;91.77;102666.19;4906729;29;20060;-88
2021/12/18 08:38:37;;;;;;;18.60;12.27;;;;;;;5.04;91.35;102681.13;4909071;29;20055;-88
2021/12/18 08:41:03;;;;;;;19.65;12.68;;;;;;;4.95;91.19;102655.66;4897464;29;20076;-88
2021/12/18 08:43:30;;;;;;;24.50;13.90;;;;;;;5.07;91.84;102675.91;4908762;29;20047;-88
2021/12/18 08:45:57;;;;;;;21.58;13.32;;;;;;;4.93;92.55;102636.38;4897536;29;20049;-88
2021/12/18 08:48:23;;;;;;;21.17;13.80;;;;;;;5.17;92.23;102678.69;4906410;29;20508;-88
2021/12/18 08:50:50;;;;;;;20.92;13.10;;;;;;;5.18;91.19;102677.81;4899396;29;20053;-89
2021/12/18 08:53:17;;;;;;;22.02;12.85;;;;;;;5.18;90.65;102679.56;4897423;29;20040;-89
2021/12/18 08:55:44;;;;;;;20.20;12.73;;;;;;;5.19;91.11;102668.22;4895776;29;20056;-90
2021/12/18 08:58:14;;;;;;;20.15;12.65;;;;;;;5.21;90.74;102674.31;4903490;29;20428;-88
2021/12/18 09:00:41;;;;;;;18.20;10.93;;;;;;;5.20;89.78;102673.44;4904529;29;20059;-92
2021/12/18 09:03:07;;;;;;;17.45;11.15;;;;;;;5.14;89.67;102659.38;4900634;29;20051;-88
2021/12/18 09:05:34;;;;;;;19.33;11.57;;;;;;;4.88;89.59;102619.66;4895127;29;20424;-89
2021/12/18 09:08:01;;;;;;;19.17;12.55;;;;;;;5.10;90.23;102665.44;4896811;29;20600;-88
2021/12/18 09:10:28;;;;;;;19.27;12.10;;;;;;;4.96;90.15;102636.41;4896046;29;20118;-90
2021/12/18 09:12:55;;;;;;;22.25;13.65;;;;;;;5.10;90.38;102674.22;4896184;29;20139;-88
2021/12/18 09:15:22;;;;;;;21.13;12.63;;;;;;;5.06;89.82;102677.66;4897961;29;20150;-89
2021/12/18 09:17:49;;;;;;;22.02;13.70;;;;;;;5.12;89.94;102677.75;4894131;29;20832;-89
2021/12/18 09:20:17;;;;;;;19.38;12.27;;;;;;;5.18;89.82;102682.19;4897601;29;20068;-88
2021/12/18 09:22:44;;;;;;;17.23;11.25;;;;;;;5.20;89.88;102686.56;4895335;29;20052;-88
2021/12/18 09:25:11;;;;;;;21.90;12.48;;;;;;;5.25;91.64;102692.78;4896316;29;20108;-91
2021/12/18 09:27:40;;;;;;;22.90;12.90;;;;;;;5.20;92.01;102685.69;4898539;29;20170;-91
2021/12/18 09:30:11;;;;;;;21.60;13.15;;;;;;;5.08;91.26;102648.78;4890882;29;20044;-90
2021/12/18 09:32:38;;;;;;;24.67;13.23;;;;;;;5.06;90.77;102643.53;4894230;29;20056;-89
2021/12/18 09:35:06;;;;;;;23.05;12.85;;;;;;;5.31;91.01;102681.47;4902894;29;20059;-90
2021/12/18 09:37:33;;;;;;;21.05;12.77;;;;;;;5.34;90.85;102680.63;4891493;29;20501;-90
2021/12/18 09:40:00;;;;;;;19.33;12.15;;;;;;;5.25;89.10;102658.63;4897708;29;20155;-90
2021/12/18 09:42:27;;;;;;;18.80;11.35;;;;;;;5.27;88.41;102661.28;4897001;29;20052;-90
2021/12/18 09:44:54;;;;;;;17.65;11.00;;;;;;;5.07;88.87;102640.03;4892909;29;20048;-90
2021/12/18 09:47:21;;;;;;;19.38;12.50;;;;;;;5.34;89.44;102665.75;4894798;29;20060;-90
2021/12/18 09:49:48;;;;;;;18.63;11.68;;;;;;;5.34;89.24;102671.00;4911132;29;20456;-90
2021/12/18 09:52:16;;;;;;;17.67;11.00;;;;;;;5.31;89.25;102654.31;4911825;29;20086;-90
2021/12/18 09:54:43;;;;;;;18.63;11.00;;;;;;;5.34;89.08;102655.25;4899584;29;20079;-89
2021/12/18 09:57:14;;;;;;;17.35;10.35;;;;;;;5.28;88.69;102648.16;4904973;29;20560;-90
2021/12/18 09:59:41;;;;;;;20.08;11.43;;;;;;;5.41;89.01;102670.19;4899503;29;20061;-90
2021/12/18 10:02:08;;;;;;;16.63;10.93;;;;;;;5.42;88.71;102663.19;4904586;29;20112;-90
2021/12/18 10:04:37;;;;;;;15.65;9.50;;;;;;;5.39;88.49;102657.88;4903736;29;20045;-89
2021/12/18 10:07:17;;;;;;;15.80;9.60;;;;;;;5.41;88.52;102662.31;4901581;29;20119;-89
2021/12/18 10:09:45;;;;;;;14.63;8.90;;;;;;;5.24;88.88;102624.47;4908379;29;20033;-89
2021/12/18 10:12:21;;;;;;;12.20;7.63;;;;;;;5.47;87.91;102651.88;4927916;29;20092;-89
2021/12/18 10:14:54;;;;;;;13.20;8.48;;;;;;;5.17;88.09;102612.16;4917694;29;20028;-89
2021/12/18 10:17:21;;;;;;;16.20;9.63;;;;;;;5.41;88.94;102656.16;4912890;29;20056;-88
2021/12/18 10:19:50;;;;;;;13.98;9.18;;;;;;;5.16;90.23;102621.78;4902804;29;20120;-91
2021/12/18 10:22:20;;;;;;;15.63;8.93;;;;;;;5.33;88.54;102644.72;4902264;29;20079;-91
2021/12/18 10:25:00;;;;;;;;;;;;;;;5.37;89.37;102650.00;4902832;29;20104;-90
2021/12/18 10:27:27;;;;;;;15.35;7.85;;;;;;;5.32;89.13;102640.31;4900126;29;20403;-89
2021/12/18 10:30:07;;;;;;;15.80;8.18;;;;;;;5.37;89.92;102636.84;4900002;29;20516;-88
2021/12/18 10:32:34;;;;;;;12.52;7.35;;;;;;;5.42;89.23;102632.53;4892763;29;20049;-89
2021/12/18 10:35:01;;;;;;;12.88;7.55;;;;;;;5.11;89.26;102584.06;4900230;29;20080;-89
2021/12/18 10:37:31;;;;;;;14.95;7.90;;;;;;;5.29;89.38;102605.25;4893369;29;20033;-89
2021/12/18 10:40:10;;;;;;;14.82;8.23;;;;;;;5.43;89.84;102620.28;4901338;29;20120;-90
2021/12/18 10:42:42;;;;;;;15.35;8.30;;;;;;;5.50;90.77;102615.09;4901570;29;20112;-89
2021/12/18 10:45:22;;;;;;;15.43;8.68;;;;;;;5.49;91.34;102592.31;4894854;29;20053;-90
2021/12/18 10:47:54;;;;;;;14.88;7.72;;;;;;;5.64;88.34;102621.38;4907943;29;20083;-91
2021/12/18 10:50:41;;;;;;;13.32;7.40;;;;;;;5.72;92.29;102616.16;4898689;29;20079;-90
2021/12/18 10:53:13;;;;;;;13.80;8.18;;;;;;;5.83;90.82;102614.50;4898220;29;20056;-90
2021/12/18 10:55:57;;;;;;;15.38;7.95;;;;;;;5.82;89.25;102599.59;4897960;29;20056;-91
2021/12/18 10:58:33;;;;;;;12.93;6.88;;;;;;;5.97;86.99;102612.91;4897701;29;20071;-90
2021/12/18 11:01:09;;;;;;;14.35;7.85;;;;;;;6.05;86.96;102609.44;4894559;29;20100;-90
2021/12/18 11:03:43;;;;;;;11.65;6.97;;;;;;;6.02;87.32;102598.88;4910423;29;20560;-92
2021/12/18 11:06:16;;;;;;;11.27;6.60;;;;;;;5.97;89.48;102591.88;4896794;29;20064;-91
2021/12/18 11:08:55;;;;;;;11.88;7.32;;;;;;;6.01;89.70;102566.44;4899958;29;20053;-91
2021/12/18 11:14:06;;;;;;;9.90;6.13;;;;;;;6.22;84.97;102582.38;4908839;29;20545;-90
2021/12/18 11:16:35;;;;;;;10.45;6.22;;;;;;;6.15;84.06;102577.94;4903530;29;20056;-91
2021/12/18 11:19:05;;;;;;;10.40;6.22;;;;;;;5.96;84.36;102537.50;4904833;29;20060;-91
2021/12/18 11:21:33;;;;;;;11.27;6.82;;;;;;;5.86;85.64;102530.38;4905525;29;20147;-90
2021/12/18 11:24:11;;;;;;;10.95;6.95;;;;;;;6.11;85.97;102575.28;4901508;29;20056;-90
2021/12/18 11:26:58;;;;;;;13.23;7.03;;;;;;;6.11;86.09;102577.91;4905048;29;20056;-91
2021/12/18 11:29:55;;;;;;;11.07;7.38;;;;;;;6.08;88.98;102552.47;4902591;29;20048;-90
2021/12/18 11:32:35;;;;;;;12.52;7.28;;;;;;;6.25;91.45;102558.72;4905146;29;20499;-90
2021/12/18 11:35:07;;;;;;;12.82;7.18;;;;;;;6.16;86.65;102540.22;4916360;29;20048;-91
2021/12/18 11:37:59;;;;;;;13.50;7.25;;;;;;;6.10;88.45;102520.91;4913726;29;20140;-91
2021/12/18 11:40:30;;;;;;;11.65;7.95;;;;;;;6.04;85.36;102492.81;4907541;29;20139;-90
2021/12/18 11:42:57;;;;;;;13.95;7.88;;;;;;;6.38;85.51;102549.13;4903274;29;20056;-90
2021/12/18 11:45:31;;;;;;;16.63;8.23;;;;;;;6.24;84.51;102527.13;4919640;29;20025;-91
2021/12/18 11:48:02;;;;;;;13.50;8.20;;;;;;;6.16;84.54;102518.31;4914406;29;20072;-91
2021/12/18 11:50:35;;;;;;;10.55;6.85;;;;;;;6.16;85.10;102518.31;4900170;29;20556;-91
2021/12/18 11:53:02;;;;;;;14.18;8.77;;;;;;;6.35;84.67;102538.56;4895991;29;20588;-90
2021/12/18 11:55:48;;;;;;;13.52;7.95;;;;;;;5.97;84.30;102491.06;4901887;29;20044;-90
2021/12/18 11:58:24;;;;;;;15.65;7.30;;;;;;;6.16;88.29;102518.31;4897699;29;20151;-91
2021/12/18 12:01:11;;;;;;;11.85;6.75;;;;;;;6.43;87.83;102543.88;4889360;29;20059;-91
2021/12/18 12:03:43;;;;;;;11.20;6.30;;;;;;;6.07;84.33;102463.03;4897602;29;20113;-91
2021/12/18 12:06:36;;;;;;;10.80;6.57;;;;;;;6.38;84.00;102530.69;4898830;29;20104;-90
2021/12/18 12:09:29;;;;;;;11.98;6.97;;;;;;;5.96;84.20;102495.44;4908894;29;20048;-90
2021/12/18 12:12:00;;;;;;;15.13;7.60;;;;;;;5.99;85.66;102537.50;4925572;29;20729;-90
2021/12/18 12:14:29;;;;;;;11.98;7.22;;;;;;;5.62;88.00;102467.16;4912202;29;20045;-89
2021/12/18 12:17:02;;;;;;;12.98;7.65;;;;;;;6.12;89.67;102534.97;4912256;29;20060;-89
2021/12/18 12:19:35;;;;;;;10.60;6.85;;;;;;;6.14;86.93;102528.81;4920997;29;20108;-89
2021/12/18 12:22:09;;;;;;;13.63;7.05;;;;;;;6.11;85.93;102531.44;4920157;29;20044;-91
2021/12/18 12:24:57;;;;;;;6.95;4.88;;;;;;;5.88;85.86;102493.56;4898666;29;20049;-90